Flight Track Log - Related Links

Times and Time Zones

All times are in EDT time to prevent confusion due to time zone crossing. See the CCA4297 flight status page for this flight to view local times or setup timezone preferences in your user account.

Time Position Orientation Groundspeed Altitude Reporting Facility
EDT Latitude Longitude Course Direction KTS MPH feet Rate Location/Type
Sun 07:10:00 AM 29.9208 106.4587 322° Northwest  Level Estimated
Sun 07:11:00 AM 29.9711 106.4130 322° Northwest  Level Estimated
Sun 07:12:00 AM 30.0214 106.3673 322° Northwest  Level Estimated
Sun 07:13:00 AM 30.0717 106.3215 322° Northwest  Level Estimated
Sun 07:14:00 AM 30.1220 106.2756 322° Northwest  Level Estimated
Sun 07:15:00 AM 30.1722 106.2298 322° Northwest  Level Estimated
Sun 07:16:00 AM 30.2225 106.1838 322° Northwest  Level Estimated
Sun 07:17:00 AM 30.2727 106.1379 322° Northwest  Level Estimated
Sun 07:18:00 AM 30.3229 106.0918 322° Northwest  Level Estimated
Sun 07:19:00 AM 30.3731 106.0458 322° Northwest  Level Estimated
Sun 07:20:00 AM 30.4232 105.9996 322° Northwest  Level Estimated
Sun 07:21:00 AM 30.4734 105.9535 322° Northwest  Level Estimated
Sun 07:22:00 AM 30.5235 105.9073 322° Northwest  Level Estimated
Sun 07:23:00 AM 30.5737 105.8610 322° Northwest  Level Estimated
Sun 07:24:00 AM 30.6238 105.8147 322° Northwest  Level Estimated
Sun 07:25:00 AM 30.6738 105.7684 321° Northwest  Level Estimated
Sun 07:26:00 AM 30.7239 105.7220 321° Northwest  Level Estimated
Sun 07:27:00 AM 30.7740 105.6755 321° Northwest  Level Estimated
Sun 07:28:00 AM 30.8240 105.6290 321° Northwest  Level Estimated
Sun 07:29:00 AM 30.8740 105.5825 321° Northwest  Level Estimated
Sun 07:30:00 AM 30.9240 105.5359 321° Northwest  Level Estimated
Sun 07:31:00 AM 30.9740 105.4892 321° Northwest  Level Estimated
Sun 07:32:00 AM 31.0240 105.4425 321° Northwest  Level Estimated
Sun 07:33:00 AM 31.0740 105.3958 321° Northwest  Level Estimated
Sun 07:34:00 AM 31.1239 105.3490 321° Northwest  Level Estimated
Sun 07:35:00 AM 31.1738 105.3021 321° Northwest  Level Estimated
Sun 07:36:00 AM 31.2237 105.2553 321° Northwest  Level Estimated
Sun 07:37:00 AM 31.2736 105.2083 321° Northwest  Level Estimated
Sun 07:38:00 AM 31.3235 105.1613 321° Northwest  Level Estimated
Sun 07:39:00 AM 31.3734 105.1143 321° Northwest  Level Estimated
Sun 07:40:00 AM 31.4232 105.0672 321° Northwest  Level Estimated
Sun 07:41:00 AM 31.4730 105.0201 321° Northwest  Level Estimated
Sun 07:42:00 AM 31.5228 104.9729 321° Northwest  Level Estimated
Sun 07:43:00 AM 31.5726 104.9256 321° Northwest  Level Estimated
Sun 07:44:00 AM 31.6224 104.8783 321° Northwest  Level Estimated
Sun 07:45:00 AM 31.6721 104.8310 321° Northwest  Level Estimated
Sun 07:46:00 AM 31.7219 104.7836 321° Northwest  Level Estimated
Sun 07:46:33 AM 32.4080 104.4680 321° Northwest 439 505 23,600  Level FlightAware ADS-B
Sun 07:47:00 AM 31.7716 104.7362 321° Northwest  Level Estimated
Sun 07:47:01 AM 32.4090 104.4050 271° West 407 468 23,700  Level FlightAware ADS-B
Sun 07:47:45 AM 32.4100 104.3120 271° West 370 426 23,500 -714 Descending FlightAware ADS-B
Sun 07:48:25 AM 32.4220 104.2350 280° West 349 402 22,700 -1,394 Descending FlightAware ADS-B
Sun 07:49:24 AM 32.4640 104.1400 298° West 366 421 21,200 -938 Descending FlightAware ADS-B
Sun 07:50:01 AM 32.4920 104.0860 302° West 366 421 21,200  Level FlightAware ADS-B
Sun 07:50:38 AM 32.5190 104.0320 301° West 366 421 21,200  Level FlightAware ADS-B
Sun 07:51:27 AM 32.5560 103.9600 301° West 366 421 21,200  Level FlightAware ADS-B
Sun 07:52:03 AM 32.5820 103.9070 300° West 366 421 21,200  Level FlightAware ADS-B
Sun 07:52:53 AM 32.6190 103.8340 301° West 366 421 21,200  Level FlightAware ADS-B
Sun 07:55:00 AM 32.7386 103.7582 332° Northwest  Level Estimated
Sun 07:56:00 AM 32.7951 103.7224 332° Northwest  Level Estimated
Sun 07:57:00 AM 32.8515 103.6865 332° Northwest  Level Estimated
Sun 07:58:00 AM 32.8570 103.6830 332° Northwest  Level Estimated
Sun 07:59:00 AM 32.8570 103.6830 North  Level Estimated
Sun 08:00:00 AM 32.8570 103.6830 North  Level Estimated
Sun 08:01:00 AM 32.8570 103.6830 North  Level Estimated

Login

Don't have an account? Register now (free) for customized features, flight alerts, and more!